Time;durP1;ratioP1;P1;durP2;ratioP2;P2;SDS_P1;SDS_P2;PMS_P1;PMS_P2;Temp;Humidity;BMP_temperature;BMP_pressure;BME280_temperature;BME280_humidity;BME280_pressure;Samples;Min_cycle;Max_cycle;Signal;HPM_P1;HPM_P2
2021/09/02 00:01:56;;;;;;;33.05;11.35;;;8.90;99.90;;;;;;5049973;28;20114;-59
2021/09/02 00:04:25;;;;;;;40.60;12.45;;;8.80;99.90;;;;;;5040641;28;20041;-61
2021/09/02 00:06:51;;;;;;;41.58;12.57;;;8.80;99.90;;;;;;5040632;28;20078;-61
2021/09/02 00:09:16;;;;;;;35.28;11.98;;;8.90;99.90;;;;;;5047096;28;20108;-60
2021/09/02 00:11:42;;;;;;;37.15;12.27;;;8.90;99.90;;;;;;5042928;28;20033;-61
2021/09/02 00:14:08;;;;;;;36.22;12.07;;;8.80;99.90;;;;;;5046988;28;20029;-60
2021/09/02 00:16:33;;;;;;;38.15;12.30;;;8.80;99.90;;;;;;5040669;28;20041;-60
2021/09/02 00:18:59;;;;;;;45.70;13.10;;;8.80;99.90;;;;;;5045708;28;20044;-59
2021/09/02 00:21:25;;;;;;;42.45;12.50;;;8.90;99.90;;;;;;5045429;28;20029;-60
2021/09/02 00:23:50;;;;;;;40.22;12.07;;;8.90;99.90;;;;;;5046900;28;20027;-60
2021/09/02 00:26:16;;;;;;;37.00;11.98;;;8.80;99.90;;;;;;5043910;28;20047;-60
2021/09/02 00:28:41;;;;;;;39.28;12.52;;;8.80;99.90;;;;;;5044285;28;20080;-60
2021/09/02 00:31:07;;;;;;;48.05;13.10;;;8.80;99.90;;;;;;5044129;28;20079;-60
2021/09/02 00:33:32;;;;;;;41.83;12.80;;;8.80;99.90;;;;;;5047528;28;20112;-60
2021/09/02 00:35:58;;;;;;;47.03;13.48;;;9.00;99.90;;;;;;5046231;28;20411;-60
2021/09/02 00:38:24;;;;;;;42.80;12.98;;;9.00;99.90;;;;;;5046561;28;20100;-61
2021/09/02 00:40:50;;;;;;;42.67;12.35;;;9.00;99.90;;;;;;5047488;28;20028;-60
2021/09/02 00:43:16;;;;;;;37.42;13.10;;;9.10;99.90;;;;;;5049380;28;20384;-60
2021/09/02 00:45:42;;;;;;;40.22;13.07;;;8.90;99.90;;;;;;5043870;28;20504;-61
2021/09/02 00:48:08;;;;;;;42.17;13.57;;;8.80;99.90;;;;;;5049171;28;20033;-61
2021/09/02 00:50:34;;;;;;;42.95;13.98;;;8.80;99.90;;;;;;5050018;28;20474;-60
2021/09/02 00:53:00;;;;;;;47.28;13.15;;;8.70;99.90;;;;;;5041508;28;20060;-60
2021/09/02 00:55:26;;;;;;;43.97;12.35;;;8.70;99.90;;;;;;5048653;28;20116;-60
2021/09/02 00:57:52;;;;;;;37.33;12.52;;;8.60;99.90;;;;;;5045239;28;20128;-60
2021/09/02 01:00:18;;;;;;;42.20;12.13;;;8.50;99.90;;;;;;5043916;28;20385;-60
2021/09/02 01:02:46;;;;;;;37.67;11.82;;;8.50;99.90;;;;;;5036282;28;20076;-59
2021/09/02 01:05:20;;;;;;;35.75;11.73;;;8.60;99.90;;;;;;5045520;28;20381;-59
2021/09/02 01:07:47;;;;;;;42.03;13.13;;;8.60;99.90;;;;;;5045842;28;20056;-59
2021/09/02 01:10:13;;;;;;;38.15;11.82;;;8.60;99.90;;;;;;5039155;28;20033;-60
2021/09/02 01:12:44;;;;;;;37.08;12.02;;;8.80;99.90;;;;;;5044447;28;20108;-60
2021/09/02 01:15:17;;;;;;;35.28;11.70;;;8.80;99.90;;;;;;5041764;28;20047;-61
2021/09/02 01:17:44;;;;;;;34.00;11.35;;;8.70;99.90;;;;;;5040676;28;20565;-59
2021/09/02 01:20:13;;;;;;;35.58;10.95;;;8.70;99.90;;;;;;5042067;28;20087;-60
2021/09/02 01:22:41;;;;;;;37.70;10.98;;;8.60;99.90;;;;;;5042558;28;20063;-60
2021/09/02 01:25:10;;;;;;;47.65;13.15;;;8.50;99.90;;;;;;5045507;28;20064;-61
2021/09/02 01:27:35;;;;;;;37.78;12.27;;;8.50;99.90;;;;;;5035824;28;20025;-61
2021/09/02 01:30:05;;;;;;;36.17;12.85;;;8.60;99.90;;;;;;5042733;28;20369;-60
2021/09/02 01:32:32;;;;;;;39.25;12.35;;;8.50;99.90;;;;;;5044185;28;20154;-60
2021/09/02 01:34:59;;;;;;;35.78;11.88;;;8.50;99.90;;;;;;5045284;28;20720;-60
2021/09/02 01:37:25;;;;;;;32.53;11.23;;;8.50;99.90;;;;;;5039388;28;22127;-60
2021/09/02 01:39:51;;;;;;;36.95;12.20;;;8.50;99.90;;;;;;5045616;28;20485;-60
2021/09/02 01:42:17;;;;;;;40.20;13.13;;;8.70;99.90;;;;;;5046157;28;20035;-60
2021/09/02 01:44:43;;;;;;;41.80;12.43;;;8.70;99.90;;;;;;5042033;28;20405;-60
2021/09/02 01:47:26;;;;;;;38.03;12.35;;;8.80;99.90;;;;;;5044572;28;20512;-60
2021/09/02 01:49:53;;;;;;;35.13;11.85;;;8.60;99.90;;;;;;5043524;28;20075;-60
2021/09/02 01:52:20;;;;;;;42.13;12.43;;;8.60;99.90;;;;;;5043672;28;20033;-60
2021/09/02 01:54:46;;;;;;;43.97;12.65;;;8.50;99.90;;;;;;5048772;28;20084;-59
2021/09/02 01:57:16;;;;;;;43.25;13.63;;;8.70;99.90;;;;;;5042041;28;20607;-59
2021/09/02 01:59:42;;;;;;;38.22;12.13;;;8.80;99.90;;;;;;5041454;28;20092;-60
2021/09/02 02:02:08;;;;;;;41.35;13.23;;;8.80;99.90;;;;;;5045177;28;20033;-61
2021/09/02 02:04:34;;;;;;;39.00;12.98;;;8.80;99.90;;;;;;5042178;28;20099;-61
2021/09/02 02:07:00;;;;;;;39.45;11.77;;;8.60;99.90;;;;;;5040015;28;20045;-60
2021/09/02 02:09:27;;;;;;;38.15;11.88;;;8.70;99.90;;;;;;5046949;28;20053;-60
2021/09/02 02:11:52;;;;;;;38.40;12.43;;;8.50;99.90;;;;;;5047656;28;20036;-60
2021/09/02 02:14:18;;;;;;;43.08;13.30;;;8.70;99.90;;;;;;5051697;28;20033;-59
2021/09/02 02:16:44;;;;;;;46.80;13.77;;;8.80;99.90;;;;;;5044677;28;20017;-61
2021/09/02 02:19:09;;;;;;;43.15;13.48;;;8.50;99.90;;;;;;5050187;28;20496;-61
2021/09/02 02:21:35;;;;;;;44.45;12.93;;;8.50;99.90;;;;;;5048733;28;20029;-59
2021/09/02 02:24:00;;;;;;;42.22;13.15;;;8.70;99.90;;;;;;5047498;28;20495;-59
2021/09/02 02:26:26;;;;;;;41.97;11.95;;;8.60;99.90;;;;;;5050738;28;20082;-60
2021/09/02 02:28:52;;;;;;;37.83;12.07;;;8.50;99.90;;;;;;5048655;28;20021;-60
2021/09/02 02:31:17;;;;;;;37.03;11.05;;;8.50;99.90;;;;;;5049767;28;20107;-59
2021/09/02 02:33:43;;;;;;;39.22;11.70;;;8.40;99.90;;;;;;5049617;28;20086;-60
2021/09/02 02:36:09;;;;;;;32.65;11.73;;;8.50;99.90;;;;;;5051408;28;20555;-60
2021/09/02 02:38:34;;;;;;;36.90;11.57;;;8.40;99.90;;;;;;5048370;28;20021;-61
2021/09/02 02:41:00;;;;;;;41.83;11.13;;;8.40;99.90;;;;;;5043019;28;20385;-61
2021/09/02 02:43:25;;;;;;;33.22;11.38;;;8.20;99.90;;;;;;5048097;28;20029;-60
2021/09/02 02:45:52;;;;;;;32.25;11.80;;;8.20;99.90;;;;;;5049870;28;20029;-60
2021/09/02 02:48:17;;;;;;;34.55;11.35;;;8.30;99.90;;;;;;5048629;28;20147;-61
2021/09/02 02:50:43;;;;;;;30.77;11.02;;;8.20;99.90;;;;;;5044497;28;20112;-60
2021/09/02 02:53:09;;;;;;;40.33;11.77;;;8.20;99.90;;;;;;5047575;28;20051;-59
2021/09/02 02:55:34;;;;;;;32.65;11.05;;;8.30;99.90;;;;;;5050868;28;20024;-60
2021/09/02 02:58:00;;;;;;;36.78;11.30;;;8.40;99.90;;;;;;5048960;28;20445;-59
2021/09/02 03:00:26;;;;;;;35.03;10.38;;;8.30;99.90;;;;;;5043086;28;20091;-60
2021/09/02 03:02:52;;;;;;;35.53;11.70;;;8.40;99.90;;;;;;5046372;28;20087;-60
2021/09/02 03:05:17;;;;;;;40.08;11.35;;;8.30;99.90;;;;;;5049477;28;20785;-60
2021/09/02 03:07:43;;;;;;;31.00;10.75;;;7.40;99.90;;;;;;5037722;28;20112;-60
2021/09/02 03:10:09;;;;;;;35.92;11.23;;;8.20;99.90;;;;;;5047483;28;20473;-60
2021/09/02 03:12:35;;;;;;;38.35;11.68;;;8.20;99.90;;;;;;5044047;28;20064;-60
2021/09/02 03:15:02;;;;;;;37.17;11.52;;;8.30;99.90;;;;;;5049530;28;20497;-61
2021/09/02 03:17:27;;;;;;;39.08;11.40;;;8.40;99.90;;;;;;5040116;28;20057;-60
2021/09/02 03:19:53;;;;;;;35.78;11.27;;;8.50;99.90;;;;;;5044538;28;20075;-59
2021/09/02 03:22:19;;;;;;;32.35;11.30;;;8.50;99.90;;;;;;5045079;28;20083;-61
2021/09/02 03:24:44;;;;;;;33.75;11.13;;;8.40;99.90;;;;;;5050017;28;20040;-61
2021/09/02 03:27:10;;;;;;;33.00;11.20;;;8.20;99.90;;;;;;5043312;28;20099;-60
2021/09/02 03:29:35;;;;;;;36.05;11.63;;;8.20;99.90;;;;;;5045049;28;20033;-60
2021/09/02 03:32:01;;;;;;;34.05;10.48;;;8.20;99.90;;;;;;5040273;28;20454;-60
2021/09/02 03:34:27;;;;;;;36.00;10.90;;;9.00;99.90;;;;;;5049761;28;20045;-60
2021/09/02 03:36:52;;;;;;;34.42;10.52;;;8.10;99.90;;;;;;5042698;28;20068;-59
2021/09/02 03:39:18;;;;;;;34.33;11.00;;;8.00;99.90;;;;;;5045896;28;20047;-60
2021/09/02 03:41:44;;;;;;;39.22;11.95;;;8.20;99.90;;;;;;5048493;28;20025;-60
2021/09/02 03:44:11;;;;;;;36.55;11.93;;;8.60;99.90;;;;;;5046741;28;20041;-60
2021/09/02 03:46:36;;;;;;;37.60;10.90;;;8.40;99.90;;;;;;5046784;28;20072;-60
2021/09/02 03:49:03;;;;;;;36.60;10.95;;;8.20;99.90;;;;;;5050137;28;20056;-60
2021/09/02 03:51:28;;;;;;;34.78;11.23;;;8.20;99.90;;;;;;5042578;28;20033;-61
2021/09/02 03:53:54;;;;;;;34.92;11.60;;;8.20;99.90;;;;;;5050613;28;20121;-60
2021/09/02 03:56:20;;;;;;;37.30;11.85;;;8.20;99.90;;;;;;5050381;28;20031;-60
2021/09/02 03:58:46;;;;;;;39.72;11.98;;;8.20;99.90;;;;;;5043442;28;20174;-60
2021/09/02 04:01:11;;;;;;;37.42;11.70;;;8.30;99.90;;;;;;5045688;28;20083;-60
2021/09/02 04:03:37;;;;;;;36.20;12.15;;;8.40;99.90;;;;;;5044409;28;20035;-60
2021/09/02 04:06:02;;;;;;;39.95;12.73;;;8.20;99.90;;;;;;5044970;28;20048;-60
2021/09/02 04:08:28;;;;;;;38.72;13.02;;;8.50;99.90;;;;;;5049053;28;20028;-60
2021/09/02 04:10:54;;;;;;;41.47;12.45;;;8.40;99.90;;;;;;5048899;28;20017;-61
2021/09/02 04:13:19;;;;;;;35.90;12.20;;;8.50;99.90;;;;;;5046007;28;20029;-61
2021/09/02 04:15:45;;;;;;;42.30;13.18;;;8.70;99.90;;;;;;5046964;28;21440;-61
2021/09/02 04:18:11;;;;;;;41.80;12.32;;;8.60;99.90;;;;;;5045006;28;20040;-61
2021/09/02 04:20:36;;;;;;;43.08;12.27;;;8.60;99.90;;;;;;5046623;28;20036;-62
2021/09/02 04:23:02;;;;;;;45.08;12.80;;;8.50;99.90;;;;;;5050364;28;20053;-61
2021/09/02 04:25:28;;;;;;;44.55;12.60;;;8.40;99.90;;;;;;5046415;28;20053;-61
2021/09/02 04:27:54;;;;;;;40.25;11.68;;;8.50;99.90;;;;;;5048878;28;20147;-61
2021/09/02 04:30:19;;;;;;;42.78;12.68;;;8.40;99.90;;;;;;5048292;28;20033;-61
2021/09/02 04:32:45;;;;;;;41.78;12.68;;;8.40;99.90;;;;;;5046256;28;20047;-59
2021/09/02 04:35:11;;;;;;;40.83;11.20;;;8.20;99.90;;;;;;5048480;28;20017;-60
2021/09/02 04:37:38;;;;;;;39.97;11.02;;;8.10;99.90;;;;;;5048461;28;20389;-59
2021/09/02 04:40:06;;;;;;;34.83;11.30;;;8.30;99.90;;;;;;5046440;28;20131;-59
2021/09/02 04:42:32;;;;;;;31.30;11.05;;;8.10;99.90;;;;;;5042242;28;20025;-60
2021/09/02 04:44:59;;;;;;;37.65;11.10;;;8.20;99.90;;;;;;5048442;28;20028;-60
2021/09/02 04:47:25;;;;;;;36.42;11.65;;;8.10;99.90;;;;;;5042506;28;20121;-60
2021/09/02 04:49:50;;;;;;;35.63;11.50;;;8.00;99.90;;;;;;5043903;28;20095;-61
2021/09/02 04:52:16;;;;;;;35.72;11.15;;;8.00;99.90;;;;;;5045260;28;20028;-62
2021/09/02 04:54:42;;;;;;;34.05;12.13;;;8.10;99.90;;;;;;5046273;28;20580;-60
2021/09/02 04:57:07;;;;;;;37.75;11.13;;;8.30;99.90;;;;;;5043787;28;20018;-61
2021/09/02 04:59:33;;;;;;;31.52;10.68;;;8.30;99.90;;;;;;5039131;28;20036;-61
2021/09/02 05:01:59;;;;;;;37.53;11.18;;;8.40;99.90;;;;;;5044282;28;20464;-61
2021/09/02 05:04:24;;;;;;;30.48;10.50;;;8.30;99.90;;;;;;5044417;28;20025;-60
2021/09/02 05:06:50;;;;;;;30.35;10.20;;;8.20;99.90;;;;;;5043623;28;20453;-60
2021/09/02 05:09:16;;;;;;;33.10;11.07;;;8.20;99.90;;;;;;5041742;28;20025;-60
2021/09/02 05:11:41;;;;;;;31.83;10.90;;;8.40;99.90;;;;;;5029376;28;20079;-60
2021/09/02 05:14:07;;;;;;;29.80;10.55;;;8.40;99.90;;;;;;5046349;28;20021;-60
2021/09/02 05:16:32;;;;;;;33.65;10.82;;;8.50;99.90;;;;;;5048157;28;20111;-59
2021/09/02 05:18:58;;;;;;;40.35;10.70;;;8.50;99.90;;;;;;5040578;28;20061;-59
2021/09/02 05:21:24;;;;;;;34.65;10.85;;;8.50;99.90;;;;;;5041097;28;20040;-60
2021/09/02 05:23:49;;;;;;;34.28;10.88;;;8.50;99.90;;;;;;5040004;28;20028;-59
2021/09/02 05:26:15;;;;;;;30.00;9.80;;;8.50;99.90;;;;;;5043300;28;20378;-60
2021/09/02 05:28:41;;;;;;;33.30;10.70;;;8.60;99.90;;;;;;5041925;28;20029;-59
2021/09/02 05:31:06;;;;;;;34.92;10.73;;;8.60;99.90;;;;;;5043459;28;20112;-60
2021/09/02 05:33:32;;;;;;;35.17;10.65;;;8.60;99.90;;;;;;5041571;28;20028;-61
2021/09/02 05:35:57;;;;;;;33.30;10.85;;;8.60;99.90;;;;;;5036260;28;20038;-60
2021/09/02 05:38:23;;;;;;;30.75;11.18;;;8.80;99.90;;;;;;5044874;28;20072;-61
2021/09/02 05:40:49;;;;;;;34.40;11.43;;;8.80;99.90;;;;;;5040103;28;20493;-60
2021/09/02 05:43:14;;;;;;;37.83;11.95;;;8.80;99.90;;;;;;5046321;28;20045;-60
2021/09/02 05:45:40;;;;;;;36.13;12.95;;;8.90;99.90;;;;;;5037424;28;20032;-60
2021/09/02 05:48:06;;;;;;;37.00;12.50;;;8.90;99.90;;;;;;5045084;28;20469;-60
2021/09/02 05:50:31;;;;;;;38.75;12.35;;;9.00;99.90;;;;;;5048237;28;20092;-61
2021/09/02 05:52:57;;;;;;;43.03;13.20;;;9.10;99.90;;;;;;5039188;28;20025;-60
2021/09/02 05:55:22;;;;;;;40.08;12.70;;;9.20;99.90;;;;;;5042073;28;20026;-60
2021/09/02 05:57:48;;;;;;;42.05;12.95;;;9.30;99.90;;;;;;5037669;28;20034;-61
2021/09/02 06:00:14;;;;;;;41.25;12.52;;;9.50;99.90;;;;;;5041275;28;20061;-60
2021/09/02 06:02:40;;;;;;;38.38;12.88;;;9.50;99.90;;;;;;5037475;28;20121;-60
2021/09/02 06:05:07;;;;;;;40.63;13.90;;;9.60;99.90;;;;;;5041260;28;20095;-60
2021/09/02 06:07:33;;;;;;;34.67;12.48;;;9.70;99.90;;;;;;5043595;28;21702;-61
2021/09/02 06:09:58;;;;;;;36.08;12.50;;;9.80;99.90;;;;;;5031769;28;20039;-60
2021/09/02 06:12:24;;;;;;;40.33;13.60;;;9.90;99.90;;;;;;5035551;28;20096;-60
2021/09/02 06:14:49;;;;;;;49.63;14.35;;;9.90;99.90;;;;;;5044767;28;20021;-60
2021/09/02 06:17:15;;;;;;;47.33;14.07;;;10.00;99.90;;;;;;5036612;28;20975;-60
2021/09/02 06:19:41;;;;;;;40.92;12.80;;;10.10;99.90;;;;;;5036626;28;20045;-61
2021/09/02 06:22:06;;;;;;;46.30;14.48;;;10.20;99.90;;;;;;5040762;28;20025;-60
2021/09/02 06:24:32;;;;;;;45.92;14.50;;;10.30;99.90;;;;;;5039089;28;20111;-60
2021/09/02 06:26:58;;;;;;;40.90;14.13;;;10.40;99.90;;;;;;5036307;28;20519;-60
2021/09/02 06:29:24;;;;;;;44.00;14.85;;;10.50;99.90;;;;;;5043728;28;20472;-61
2021/09/02 06:31:50;;;;;;;48.42;14.40;;;10.50;99.90;;;;;;5038390;28;20025;-61
2021/09/02 06:34:15;;;;;;;41.85;14.05;;;10.70;99.90;;;;;;5049142;28;20021;-60
2021/09/02 06:36:41;;;;;;;50.47;15.95;;;10.80;99.90;;;;;;5048173;28;20029;-61
2021/09/02 06:39:07;;;;;;;47.40;14.35;;;10.90;99.90;;;;;;5049269;28;20025;-61
2021/09/02 06:41:33;;;;;;;48.33;15.68;;;11.00;99.90;;;;;;5048369;28;20028;-60
2021/09/02 06:43:58;;;;;;;51.03;15.57;;;11.10;99.90;;;;;;5045755;28;20037;-60
2021/09/02 06:46:24;;;;;;;58.35;17.17;;;11.20;99.90;;;;;;5049074;28;20033;-60
2021/09/02 06:48:49;;;;;;;50.75;16.20;;;11.30;99.90;;;;;;5046247;28;20040;-60
2021/09/02 06:51:15;;;;;;;46.40;16.48;;;11.40;99.90;;;;;;5044747;28;20025;-61
2021/09/02 06:53:41;;;;;;;49.88;16.70;;;11.40;99.90;;;;;;5048728;28;20680;-60
2021/09/02 06:56:06;;;;;;;52.60;16.90;;;11.60;99.90;;;;;;5049944;28;20106;-60
2021/09/02 06:58:32;;;;;;;53.05;16.42;;;11.70;99.90;;;;;;5052753;28;20109;-61
2021/09/02 07:00:58;;;;;;;49.35;17.10;;;11.80;99.90;;;;;;5052442;28;20107;-60
2021/09/02 07:03:23;;;;;;;46.28;15.93;;;11.90;99.90;;;;;;5052215;28;20029;-61
2021/09/02 07:05:49;;;;;;;50.90;15.68;;;12.00;99.90;;;;;;5051477;28;20461;-61
2021/09/02 07:08:14;;;;;;;47.05;15.35;;;12.20;99.90;;;;;;5045244;28;20029;-61
2021/09/02 07:10:41;;;;;;;43.65;15.63;;;12.40;99.90;;;;;;5050970;28;20101;-61
2021/09/02 07:13:07;;;;;;;45.53;14.93;;;12.50;99.90;;;;;;5037002;28;20541;-61
2021/09/02 07:15:32;;;;;;;44.80;14.77;;;12.60;99.90;;;;;;5043188;28;20021;-60
2021/09/02 07:17:59;;;;;;;45.63;15.57;;;12.70;99.90;;;;;;5051147;28;20049;-60
2021/09/02 07:20:24;;;;;;;49.90;16.05;;;12.80;99.90;;;;;;5048421;28;20044;-61
2021/09/02 07:22:50;;;;;;;54.30;16.05;;;13.00;99.90;;;;;;5045759;28;20025;-61
2021/09/02 07:25:16;;;;;;;59.67;18.17;;;13.20;99.90;;;;;;5050268;28;20037;-60
2021/09/02 07:27:41;;;;;;;50.25;17.05;;;13.30;99.90;;;;;;5043651;28;20033;-61
2021/09/02 07:30:08;;;;;;;50.72;15.90;;;13.40;99.90;;;;;;5048837;28;20025;-60
2021/09/02 07:32:33;;;;;;;46.03;15.75;;;13.50;99.90;;;;;;5047535;28;20048;-61
2021/09/02 07:34:59;;;;;;;45.80;15.43;;;13.60;99.90;;;;;;5049897;28;20021;-61
2021/09/02 07:37:25;;;;;;;46.33;15.50;;;13.90;99.90;;;;;;5044189;28;20064;-61
2021/09/02 07:39:50;;;;;;;48.47;15.95;;;13.80;99.90;;;;;;5047697;28;20028;-61
2021/09/02 07:42:16;;;;;;;42.40;15.63;;;13.90;99.90;;;;;;5050565;28;20035;-61
2021/09/02 07:44:42;;;;;;;45.08;14.98;;;14.10;99.90;;;;;;5045378;28;20528;-61
2021/09/02 07:47:09;;;;;;;37.97;15.07;;;14.20;99.90;;;;;;5048526;28;20025;-61
2021/09/02 07:49:35;;;;;;;39.67;14.48;;;14.30;99.90;;;;;;5049547;28;20021;-60
2021/09/02 07:52:00;;;;;;;38.33;15.02;;;14.40;99.90;;;;;;5050014;28;20390;-61
2021/09/02 07:54:26;;;;;;;39.42;13.10;;;14.50;99.90;;;;;;5044764;28;20539;-61
2021/09/02 07:56:52;;;;;;;26.95;11.45;;;14.60;99.90;;;;;;5049614;28;20021;-61
2021/09/02 07:59:17;;;;;;;29.92;11.38;;;14.70;99.90;;;;;;5042110;28;20053;-61
2021/09/02 08:01:43;;;;;;;25.67;10.55;;;14.80;99.90;;;;;;5037444;28;20455;-61
2021/09/02 08:04:10;;;;;;;26.48;11.32;;;15.00;99.90;;;;;;5039160;28;20029;-61
2021/09/02 08:06:36;;;;;;;29.55;10.88;;;15.20;99.90;;;;;;5037913;28;20536;-61
2021/09/02 08:09:01;;;;;;;27.80;12.52;;;15.30;99.90;;;;;;5039322;28;20025;-62
2021/09/02 08:11:28;;;;;;;30.63;11.48;;;15.40;99.90;;;;;;5041084;28;20025;-61
2021/09/02 08:13:54;;;;;;;25.70;11.05;;;15.40;99.90;;;;;;5042390;28;20079;-61
2021/09/02 08:16:22;;;;;;;26.13;9.30;;;15.60;99.90;;;;;;5037420;28;20036;-61
2021/09/02 08:18:48;;;;;;;23.33;9.80;;;15.80;99.90;;;;;;5043792;28;20037;-61
2021/09/02 08:21:14;;;;;;;25.92;11.05;;;16.00;99.90;;;;;;5038697;28;20856;-61
2021/09/02 08:23:40;;;;;;;24.25;9.50;;;16.20;99.90;;;;;;5040022;28;20064;-61
2021/09/02 08:26:05;;;;;;;23.58;10.02;;;17.30;99.90;;;;;;5039358;28;20812;-61
2021/09/02 08:28:31;;;;;;;25.00;9.75;;;17.40;99.90;;;;;;5039403;28;20029;-61
2021/09/02 08:30:58;;;;;;;25.35;10.30;;;18.10;99.90;;;;;;5035311;28;20076;-61
2021/09/02 08:33:24;;;;;;;19.80;9.40;;;18.40;99.90;;;;;;5037402;28;20425;-61
2021/09/02 08:35:51;;;;;;;24.42;9.85;;;18.60;99.90;;;;;;5040927;28;20035;-61
2021/09/02 08:38:18;;;;;;;24.25;10.13;;;19.00;99.90;;;;;;5034578;28;20087;-61
2021/09/02 08:40:44;;;;;;;21.60;9.43;;;19.50;99.90;;;;;;5039394;28;20474;-61
2021/09/02 08:43:11;;;;;;;23.00;10.57;;;19.90;99.90;;;;;;5036602;28;20036;-61
2021/09/02 08:45:37;;;;;;;21.98;10.65;;;19.70;99.90;;;;;;5032454;28;20079;-61
2021/09/02 08:48:03;;;;;;;20.60;9.70;;;20.20;99.90;;;;;;5037512;28;20958;-61
2021/09/02 08:50:35;;;;;;;25.85;10.60;;;21.00;99.90;;;;;;5036184;28;20482;-61
2021/09/02 08:53:02;;;;;;;24.23;10.63;;;20.80;99.90;;;;;;5036796;28;20056;-61
2021/09/02 08:55:29;;;;;;;24.92;10.65;;;20.40;99.90;;;;;;5040615;28;20083;-61
2021/09/02 08:57:56;;;;;;;28.10;11.77;;;20.80;99.90;;;;;;5038501;28;20029;-61
2021/09/02 09:00:23;;;;;;;22.50;10.15;;;20.40;99.90;;;;;;5035505;28;20087;-61
2021/09/02 09:02:56;;;;;;;28.02;10.85;;;20.20;99.90;;;;;;5038318;28;20029;-61
2021/09/02 09:05:22;;;;;;;24.80;9.90;;;20.80;99.90;;;;;;5037865;28;20029;-61
2021/09/02 09:07:49;;;;;;;21.88;9.52;;;21.20;99.90;;;;;;5040389;28;20074;-61
2021/09/02 09:10:17;;;;;;;18.45;9.73;;;21.40;99.90;;;;;;5036935;28;20599;-61
2021/09/02 09:12:46;;;;;;;24.92;11.23;;;21.20;99.90;;;;;;5050156;28;20024;-61
2021/09/02 09:15:27;;;;;;;21.92;10.45;;;21.30;99.90;;;;;;5047806;28;20030;-61
2021/09/02 09:17:54;;;;;;;20.60;10.10;;;21.40;99.90;;;;;;5042427;28;20080;-61
2021/09/02 09:20:23;;;;;;;16.98;8.45;;;21.80;99.90;;;;;;5045026;28;20031;-61
2021/09/02 09:22:56;;;;;;;25.98;11.15;;;21.90;99.90;;;;;;5045350;28;20504;-61
2021/09/02 09:25:22;;;;;;;17.73;8.35;;;21.70;99.90;;;;;;5042925;28;20040;-61
2021/09/02 09:27:50;;;;;;;21.13;8.68;;;22.30;99.90;;;;;;5047530;28;20029;-61
2021/09/02 09:30:19;;;;;;;18.70;8.63;;;22.90;99.90;;;;;;5045165;28;20031;-61
2021/09/02 09:32:49;;;;;;;22.95;8.98;;;23.30;99.90;;;;;;5045328;28;20492;-61
2021/09/02 09:35:28;;;;;;;19.77;8.90;;;23.20;99.90;;;;;;5045660;28;20396;-61
2021/09/02 09:38:10;;;;;;;21.83;10.25;;;22.90;99.90;;;;;;5042120;28;20748;-61
2021/09/02 09:40:43;;;;;;;21.67;10.52;;;23.00;99.90;;;;;;5045352;28;20029;-61
2021/09/02 09:43:31;;;;;;;26.48;9.65;;;22.20;99.90;;;;;;5040213;28;20106;-61
2021/09/02 09:45:57;;;;;;;21.02;9.30;;;22.20;99.90;;;;;;5036663;28;20029;-61
2021/09/02 09:48:23;;;;;;;21.23;11.20;;;22.50;99.90;;;;;;5041858;28;20037;-61
2021/09/02 09:51:22;;;;;;;23.83;11.48;;;23.30;99.90;;;;;;5048768;28;20086;-61
2021/09/02 09:53:52;;;;;;;18.15;8.13;;;21.90;99.90;;;;;;5041229;28;20056;-61
2021/09/02 09:56:24;;;;;;;22.15;10.18;;;22.40;99.90;;;;;;5048770;28;20021;-61
2021/09/02 09:58:52;;;;;;;23.13;9.43;;;22.50;99.90;;;;;;5045173;28;20192;-61
2021/09/02 10:01:18;;;;;;;19.70;9.93;;;22.70;99.90;;;;;;5041181;28;20024;-61
2021/09/02 10:03:45;;;;;;;20.60;10.13;;;22.40;99.90;;;;;;5046460;28;20465;-61
2021/09/02 10:06:12;;;;;;;19.88;9.00;;;23.30;99.90;;;;;;5047363;28;20052;-61
2021/09/02 10:08:40;;;;;;;17.55;8.85;;;23.70;99.90;;;;;;5044115;28;20083;-61
2021/09/02 10:11:08;;;;;;;17.13;8.25;;;24.60;99.90;;;;;;5038607;28;20485;-61
2021/09/02 10:13:35;;;;;;;20.40;8.45;;;24.10;99.90;;;;;;5036672;28;20071;-61
2021/09/02 10:16:02;;;;;;;19.33;9.00;;;24.00;99.90;;;;;;5041156;28;20020;-61
2021/09/02 10:18:29;;;;;;;20.48;9.13;;;25.00;99.90;;;;;;5035782;28;20053;-62
2021/09/02 10:20:59;;;;;;;18.23;8.63;;;24.50;99.90;;;;;;5039224;28;20040;-61
2021/09/02 10:23:25;;;;;;;17.25;8.38;;;25.00;99.90;;;;;;5034585;28;20041;-62
2021/09/02 10:25:52;;;;;;;20.23;9.60;;;25.80;99.90;;;;;;5042668;28;20114;-61
2021/09/02 10:28:36;;;;;;;20.30;9.98;;;24.90;99.90;;;;;;5039091;28;20037;-61
2021/09/02 10:31:05;;;;;;;19.77;9.32;;;24.30;99.90;;;;;;5046078;28;20485;-61
2021/09/02 10:33:44;;;;;;;22.10;9.83;;;24.10;99.90;;;;;;5040916;28;20036;-61
2021/09/02 10:36:15;;;;;;;20.10;9.30;;;24.90;99.90;;;;;;5040831;28;20096;-61
2021/09/02 10:38:42;;;;;;;20.60;9.93;;;25.10;99.90;;;;;;5042031;28;20375;-61
2021/09/02 10:41:09;;;;;;;20.45;9.68;;;24.60;99.90;;;;;;5041473;28;20044;-61
2021/09/02 10:43:52;;;;;;;18.42;7.85;;;24.30;99.90;;;;;;5041658;28;20032;-62
2021/09/02 10:46:23;;;;;;;19.05;8.50;;;25.80;99.90;;;;;;5038696;28;20033;-62
2021/09/02 10:48:49;;;;;;;19.67;9.32;;;26.40;99.90;;;;;;5041242;28;20355;-61
2021/09/02 10:51:38;;;;;;;17.67;7.80;;;26.10;99.90;;;;;;5041266;28;20021;-62
2021/09/02 10:54:08;;;;;;;16.73;7.80;;;25.90;99.90;;;;;;5040685;28;20033;-62
2021/09/02 10:56:51;;;;;;;18.48;8.23;;;26.90;99.40;;;;;;5040491;28;20021;-62
2021/09/02 11:00:02;;;;;;;19.50;8.65;;;26.30;99.90;;;;;;5044591;28;20120;-62
2021/09/02 11:02:28;;;;;;;16.88;9.18;;;27.10;98.50;;;;;;5043946;28;20084;-62
2021/09/02 11:05:01;;;;;;;18.77;8.95;;;26.80;98.20;;;;;;5043726;28;20024;-62
2021/09/02 11:07:45;;;;;;;14.13;7.47;;;26.50;98.20;;;;;;5044561;28;20491;-62
2021/09/02 11:10:16;;;;;;;12.88;7.40;;;26.40;99.90;;;;;;5041510;28;20025;-62
2021/09/02 11:12:43;;;;;;;16.33;7.75;;;27.00;99.30;;;;;;5049499;28;20024;-62
2021/09/02 11:15:10;;;;;;;16.55;8.93;;;28.40;96.70;;;;;;5043183;28;20087;-62
2021/09/02 11:17:36;;;;;;;17.00;9.30;;;28.10;96.00;;;;;;5049046;28;20308;-62
2021/09/02 11:20:02;;;;;;;17.02;9.30;;;26.30;96.80;;;;;;5048891;28;20021;-62
2021/09/02 11:22:28;;;;;;;23.08;9.65;;;24.60;99.90;;;;;;5051347;28;20543;-62
2021/09/02 11:24:56;;;;;;;23.00;9.65;;;24.10;99.90;;;;;;5050905;28;20020;-62
2021/09/02 11:27:33;;;;;;;20.88;10.52;;;24.10;99.90;;;;;;5046979;28;20110;-62
2021/09/02 11:30:25;;;;;;;19.52;9.45;;;24.70;99.90;;;;;;5046380;28;20040;-62
2021/09/02 11:32:53;;;;;;;19.17;8.55;;;26.00;99.90;;;;;;5046419;28;20033;-62
2021/09/02 11:35:20;;;;;;;18.38;9.65;;;25.80;99.90;;;;;;5043507;28;20032;-62
2021/09/02 11:37:45;;;;;;;17.58;9.93;;;25.80;99.90;;;;;;5042997;28;20037;-62
2021/09/02 11:40:40;;;;;;;19.85;9.65;;;26.80;98.10;;;;;;5045751;28;20101;-62
2021/09/02 11:43:16;;;;;;;19.35;11.27;;;27.40;97.60;;;;;;5040721;28;20033;-62
2021/09/02 11:45:49;;;;;;;23.42;10.93;;;26.40;97.70;;;;;;5043998;28;20037;-62
2021/09/02 11:48:15;;;;;;;19.17;10.55;;;26.50;98.80;;;;;;5049432;28;20032;-62
2021/09/02 11:50:41;;;;;;;19.05;10.35;;;26.60;98.40;;;;;;5042313;28;20465;-62
2021/09/02 11:53:06;;;;;;;21.70;11.10;;;27.00;98.30;;;;;;5040581;28;20025;-62
2021/09/02 11:55:35;;;;;;;20.67;10.48;;;27.30;96.90;;;;;;5047146;28;20465;-62
2021/09/02 11:58:03;;;;;;;18.58;9.82;;;27.40;97.50;;;;;;5043290;28;20480;-62
2021/09/02 12:00:31;;;;;;;22.63;10.90;;;26.60;98.00;;;;;;5045314;28;20038;-62
2021/09/02 12:02:59;;;;;;;21.90;10.57;;;26.40;98.20;;;;;;5046392;28;20025;-62
2021/09/02 12:05:38;;;;;;;19.63;11.45;;;27.70;96.70;;;;;;5037754;28;20102;-62
2021/09/02 12:08:09;;;;;;;27.00;10.50;;;27.00;96.30;;;;;;5050361;28;20071;-62
2021/09/02 12:10:37;;;;;;;18.45;10.77;;;27.50;96.60;;;;;;5050705;28;20036;-62
2021/09/02 12:13:23;;;;;;;20.20;10.35;;;27.90;95.90;;;;;;5041618;28;20025;-62
2021/09/02 12:16:23;;;;;;;20.60;11.00;;;28.60;95.60;;;;;;5040678;28;20023;-62
2021/09/02 12:18:57;;;;;;;20.65;11.45;;;28.00;96.30;;;;;;5000766;28;20176;-62
2021/09/02 12:21:30;;;;;;;20.38;10.32;;;27.70;95.10;;;;;;5043605;28;20021;-62
2021/09/02 12:23:59;;;;;;;18.50;9.82;;;27.40;96.50;;;;;;5043706;28;20032;-62
2021/09/02 12:26:41;;;;;;;18.50;9.15;;;28.70;95.60;;;;;;5043904;28;20469;-62
2021/09/02 12:29:14;;;;;;;16.10;9.45;;;30.30;93.60;;;;;;5050150;28;20115;-62
2021/09/02 12:31:40;;;;;;;20.40;9.90;;;30.60;92.30;;;;;;5045317;28;20053;-62
2021/09/02 12:34:30;;;;;;;18.35;9.32;;;29.50;92.60;;;;;;5046583;28;20052;-62
2021/09/02 12:37:07;;;;;;;19.42;9.20;;;29.70;92.90;;;;;;5037436;28;20053;-62